Time;durP1;ratioP1;P1;durP2;ratioP2;P2;SDS_P1;SDS_P2;PMS_P1;PMS_P2;Temp;Humidity;BMP_temperature;BMP_pressure;BME280_temperature;BME280_humidity;BME280_pressure;Samples;Min_cycle;Max_cycle;Signal;HPM_P1;HPM_P2
2023/12/18 00:01:07;;;;;;;22.60;4.78;;;26.50;95.80;;;;;;5047925;28;20116;-70
2023/12/18 00:03:34;;;;;;;29.17;5.45;;;26.90;94.90;;;;;;5047751;28;20112;-69
2023/12/18 00:06:02;;;;;;;28.70;6.22;;;27.10;94.70;;;;;;5038754;28;20379;-70
2023/12/18 00:08:29;;;;;;;17.80;5.00;;;27.40;93.60;;;;;;5051228;28;20048;-70
2023/12/18 00:10:57;;;;;;;26.42;5.53;;;27.30;94.30;;;;;;5053189;28;20063;-69
2023/12/18 00:13:24;;;;;;;31.58;5.50;;;27.10;94.40;;;;;;5050944;28;20374;-70
2023/12/18 00:15:51;;;;;;;25.15;5.35;;;27.30;93.80;;;;;;5053390;28;20021;-69
2023/12/18 00:18:18;;;;;;;24.77;4.95;;;27.30;93.80;;;;;;5054592;28;20039;-70
2023/12/18 00:20:50;;;;;;;21.70;4.95;;;27.30;94.30;;;;;;5029661;28;20032;-68
2023/12/18 00:23:17;;;;;;;17.60;4.40;;;27.70;93.50;;;;;;5053323;28;21626;-69
2023/12/18 00:25:44;;;;;;;26.98;5.60;;;27.90;93.50;;;;;;5052003;28;20146;-70
2023/12/18 00:28:12;;;;;;;23.95;5.28;;;27.80;92.90;;;;;;5055250;28;20048;-70
2023/12/18 00:30:39;;;;;;;27.00;6.40;;;27.90;93.10;;;;;;5053598;28;20056;-69
2023/12/18 00:33:06;;;;;;;20.23;4.97;;;28.10;92.60;;;;;;5031863;28;20383;-69
2023/12/18 00:35:34;;;;;;;20.20;4.68;;;28.70;92.20;;;;;;5050652;28;20107;-70
2023/12/18 00:38:01;;;;;;;28.80;5.50;;;29.20;91.80;;;;;;5051123;28;20032;-70
2023/12/18 00:40:28;;;;;;;30.98;7.05;;;29.10;91.00;;;;;;5049401;28;20024;-71
2023/12/18 00:42:56;;;;;;;28.77;6.93;;;28.70;91.50;;;;;;5055666;28;20182;-70
2023/12/18 00:45:23;;;;;;;30.35;6.38;;;28.40;92.00;;;;;;5050540;28;20029;-70
2023/12/18 00:47:52;;;;;;;20.88;6.95;;;28.30;92.20;;;;;;5053435;28;20044;-70
2023/12/18 00:50:19;;;;;;;31.05;7.20;;;28.00;92.60;;;;;;5048013;28;20504;-69
2023/12/18 00:52:47;;;;;;;22.60;6.10;;;28.00;92.50;;;;;;5032779;28;20461;-70
2023/12/18 00:55:14;;;;;;;26.88;7.13;;;27.80;92.60;;;;;;5054243;28;20027;-70
2023/12/18 00:57:42;;;;;;;23.55;6.50;;;27.60;93.20;;;;;;5047503;28;20055;-70
2023/12/18 01:00:09;;;;;;;22.58;6.50;;;27.60;93.20;;;;;;5049391;28;20031;-71
2023/12/18 01:02:37;;;;;;;33.72;7.03;;;27.80;93.00;;;;;;5051342;28;20432;-70
2023/12/18 01:05:05;;;;;;;30.23;7.18;;;27.80;93.00;;;;;;5044512;28;20025;-71
2023/12/18 01:07:32;;;;;;;32.10;6.85;;;28.70;92.70;;;;;;5048483;28;20427;-71
2023/12/18 01:10:00;;;;;;;19.63;6.10;;;29.70;91.90;;;;;;5046626;28;20466;-72
2023/12/18 01:12:27;;;;;;;23.88;7.65;;;30.40;90.20;;;;;;5046165;28;20035;-72
2023/12/18 01:14:55;;;;;;;27.70;7.68;;;31.30;88.00;;;;;;5048427;28;20449;-71
2023/12/18 01:17:22;;;;;;;23.95;7.05;;;31.20;87.30;;;;;;5054532;28;20532;-72
2023/12/18 01:19:51;;;;;;;28.08;7.97;;;30.70;87.30;;;;;;5047329;28;20026;-71
2023/12/18 01:22:18;;;;;;;23.67;7.90;;;30.70;88.60;;;;;;5039683;28;20074;-70
2023/12/18 01:24:46;;;;;;;24.55;7.32;;;31.10;88.50;;;;;;5048347;28;20124;-70
2023/12/18 01:27:13;;;;;;;29.63;8.13;;;31.80;88.20;;;;;;5033245;28;20040;-70
2023/12/18 01:29:41;;;;;;;34.80;9.57;;;31.90;85.00;;;;;;5055423;28;20028;-70
2023/12/18 01:32:09;;;;;;;21.27;10.05;;;31.60;85.10;;;;;;5054830;28;20032;-69
2023/12/18 01:34:38;;;;;;;27.33;10.20;;;31.50;85.20;;;;;;5054247;28;20021;-70
2023/12/18 01:37:05;;;;;;;21.10;10.07;;;31.10;85.40;;;;;;5059551;28;20556;-70
2023/12/18 01:39:33;;;;;;;26.90;9.05;;;30.30;86.80;;;;;;5056270;28;20046;-70
2023/12/18 01:42:00;;;;;;;26.13;9.20;;;30.10;88.00;;;;;;5056080;28;20378;-70
2023/12/18 01:44:28;;;;;;;25.02;10.02;;;30.60;88.00;;;;;;5058711;28;20583;-70
2023/12/18 01:46:56;;;;;;;26.63;10.48;;;30.30;87.70;;;;;;5033858;28;20060;-70
2023/12/18 01:49:24;;;;;;;24.15;9.18;;;30.60;87.40;;;;;;5054204;28;20100;-70
2023/12/18 01:51:52;;;;;;;27.23;10.00;;;30.60;87.00;;;;;;5043549;28;20053;-70
2023/12/18 01:54:22;;;;;;;26.95;10.98;;;30.80;87.00;;;;;;5052911;28;20071;-71
2023/12/18 01:56:52;;;;;;;23.50;10.68;;;30.60;86.20;;;;;;5056791;28;20543;-70
2023/12/18 01:59:20;;;;;;;26.20;11.07;;;30.20;87.40;;;;;;5051059;28;20083;-70
2023/12/18 02:01:49;;;;;;;21.88;9.98;;;30.20;88.10;;;;;;5055003;28;20025;-70
2023/12/18 02:04:18;;;;;;;30.50;10.93;;;30.50;87.20;;;;;;5056852;28;20500;-70
2023/12/18 02:06:46;;;;;;;32.80;10.75;;;31.00;86.80;;;;;;5058367;28;20032;-70
2023/12/18 02:09:15;;;;;;;22.77;11.18;;;31.00;86.20;;;;;;5056875;28;20041;-70
2023/12/18 02:11:45;;;;;;;23.65;10.85;;;30.70;86.30;;;;;;5057113;28;20014;-69
2023/12/18 02:14:12;;;;;;;25.15;11.55;;;30.40;87.00;;;;;;5056286;28;20139;-70
2023/12/18 02:16:40;;;;;;;24.80;10.90;;;30.50;87.50;;;;;;5050652;28;20051;-71
2023/12/18 02:19:25;;;;;;;23.92;10.85;;;30.40;86.90;;;;;;5035110;28;20047;-71
2023/12/18 02:21:54;;;;;;;25.90;10.60;;;30.20;87.70;;;;;;5050962;28;20489;-71
2023/12/18 02:24:21;;;;;;;25.67;10.60;;;30.30;88.50;;;;;;5044738;28;20508;-70
2023/12/18 02:26:50;;;;;;;25.23;11.20;;;30.50;87.90;;;;;;5043381;28;20542;-70
2023/12/18 02:29:17;;;;;;;24.13;10.57;;;30.90;86.80;;;;;;5044083;28;20037;-71
2023/12/18 02:31:45;;;;;;;32.33;10.95;;;31.20;85.50;;;;;;5054925;28;20474;-72
2023/12/18 02:34:12;;;;;;;27.17;11.13;;;31.40;85.20;;;;;;5053633;28;20036;-72
2023/12/18 02:36:39;;;;;;;24.70;11.55;;;31.60;85.10;;;;;;5051564;28;20052;-72
2023/12/18 02:39:07;;;;;;;31.55;11.73;;;32.10;83.30;;;;;;5052379;28;20027;-71
2023/12/18 02:41:34;;;;;;;21.40;11.40;;;32.10;82.60;;;;;;5045589;28;20028;-71
2023/12/18 02:44:02;;;;;;;25.17;11.10;;;31.70;83.70;;;;;;5048463;28;20052;-73
2023/12/18 02:46:29;;;;;;;26.20;9.98;;;32.30;83.40;;;;;;5050506;28;20036;-72
2023/12/18 02:48:56;;;;;;;23.55;12.07;;;32.70;81.40;;;;;;5047747;28;20033;-71
2023/12/18 02:51:24;;;;;;;24.00;11.25;;;32.60;81.20;;;;;;5029519;28;20139;-70
2023/12/18 02:53:51;;;;;;;22.85;12.00;;;32.60;80.10;;;;;;5049827;28;20067;-72
2023/12/18 02:56:18;;;;;;;26.42;12.18;;;32.70;79.30;;;;;;5032579;28;20120;-72
2023/12/18 02:58:46;;;;;;;25.58;12.23;;;33.00;79.00;;;;;;5054074;28;20052;-72
2023/12/18 03:01:13;;;;;;;26.55;12.45;;;33.30;80.80;;;;;;5050129;28;20481;-72
2023/12/18 03:03:40;;;;;;;26.20;12.77;;;33.80;76.20;;;;;;5045827;28;20025;-71
2023/12/18 03:06:08;;;;;;;20.50;11.70;;;33.60;76.10;;;;;;5050645;28;20055;-71
2023/12/18 03:08:35;;;;;;;24.05;12.18;;;33.30;75.90;;;;;;5049151;28;20041;-71
2023/12/18 03:11:03;;;;;;;21.45;11.88;;;33.50;76.80;;;;;;5051381;28;20064;-71
2023/12/18 03:13:31;;;;;;;21.67;11.95;;;33.90;75.70;;;;;;5056966;28;20025;-72
2023/12/18 03:15:59;;;;;;;29.40;11.88;;;34.20;75.00;;;;;;5048943;28;20064;-71
2023/12/18 03:18:26;;;;;;;24.83;11.85;;;33.80;75.00;;;;;;5051866;28;20024;-73
2023/12/18 03:20:54;;;;;;;20.23;11.50;;;33.60;75.30;;;;;;5031687;28;20028;-71
2023/12/18 03:23:21;;;;;;;26.67;11.25;;;33.70;75.60;;;;;;5045571;28;20021;-71
2023/12/18 03:25:48;;;;;;;26.48;12.25;;;33.80;74.50;;;;;;5050309;28;20557;-71
2023/12/18 03:28:17;;;;;;;24.60;12.50;;;34.20;74.20;;;;;;5029250;28;20086;-71
2023/12/18 03:30:45;;;;;;;20.83;11.40;;;34.30;72.80;;;;;;5045461;28;20059;-71
2023/12/18 03:33:13;;;;;;;22.92;12.13;;;34.10;73.60;;;;;;5029710;28;20043;-72
2023/12/18 03:35:40;;;;;;;20.02;10.90;;;33.90;72.40;;;;;;5047962;28;20037;-71
2023/12/18 03:38:07;;;;;;;23.52;11.63;;;33.60;73.70;;;;;;5043187;28;20013;-69
2023/12/18 03:40:35;;;;;;;24.08;11.80;;;33.80;73.10;;;;;;5026962;28;20355;-70
2023/12/18 03:43:02;;;;;;;20.80;11.55;;;34.00;71.90;;;;;;5029727;28;20032;-71
2023/12/18 03:45:30;;;;;;;21.55;12.40;;;34.40;71.90;;;;;;5048241;28;20894;-71
2023/12/18 03:47:57;;;;;;;24.05;12.27;;;34.70;72.00;;;;;;5047323;28;20421;-71
2023/12/18 03:50:25;;;;;;;21.80;11.77;;;35.00;71.00;;;;;;5029227;28;20061;-71
2023/12/18 03:52:52;;;;;;;26.70;12.05;;;34.90;69.70;;;;;;5049229;28;20021;-71
2023/12/18 03:55:19;;;;;;;21.60;11.13;;;34.70;70.40;;;;;;5028794;28;20390;-71
2023/12/18 03:57:47;;;;;;;19.35;11.93;;;35.10;70.90;;;;;;5050032;28;20025;-70
2023/12/18 04:00:14;;;;;;;24.40;12.88;;;35.40;68.80;;;;;;5051853;28;20096;-70
2023/12/18 04:02:42;;;;;;;21.50;12.05;;;35.40;69.10;;;;;;5049091;28;20036;-71
2023/12/18 04:05:09;;;;;;;19.88;11.45;;;35.40;69.80;;;;;;5049369;28;20132;-70
2023/12/18 04:07:37;;;;;;;23.30;12.32;;;35.70;70.10;;;;;;5046447;28;20469;-71
2023/12/18 04:10:04;;;;;;;19.35;11.02;;;35.80;70.10;;;;;;5029680;28;20064;-72
2023/12/18 04:12:32;;;;;;;28.52;13.10;;;36.10;68.20;;;;;;5028237;28;20401;-71
2023/12/18 04:14:59;;;;;;;23.17;11.25;;;36.00;68.10;;;;;;5044158;28;20057;-73
2023/12/18 04:17:26;;;;;;;23.42;12.00;;;36.00;67.30;;;;;;5047493;28;20031;-70
2023/12/18 04:19:54;;;;;;;20.70;12.23;;;36.10;67.00;;;;;;5046500;28;20028;-72
2023/12/18 04:22:21;;;;;;;19.20;11.57;;;35.70;65.60;;;;;;5043520;28;20021;-72
2023/12/18 04:24:48;;;;;;;21.67;11.65;;;35.40;66.40;;;;;;5033716;28;20593;-72
2023/12/18 04:27:16;;;;;;;23.45;12.95;;;35.50;66.30;;;;;;5039234;28;20063;-70
2023/12/18 04:29:43;;;;;;;24.38;12.40;;;35.40;66.40;;;;;;5042622;28;20029;-72
2023/12/18 04:32:10;;;;;;;18.85;11.60;;;35.50;67.90;;;;;;5045022;28;20140;-69
2023/12/18 04:34:39;;;;;;;21.65;11.20;;;35.60;67.40;;;;;;5040997;28;20036;-71
2023/12/18 04:37:07;;;;;;;23.60;11.65;;;35.80;68.00;;;;;;5028578;28;20033;-72
2023/12/18 04:39:37;;;;;;;21.42;11.35;;;35.90;67.60;;;;;;5046452;28;20063;-69
2023/12/18 04:42:08;;;;;;;19.92;12.07;;;35.90;65.80;;;;;;5045590;28;20125;-72
2023/12/18 04:44:39;;;;;;;19.85;11.55;;;35.60;65.40;;;;;;5048670;28;20469;-72
2023/12/18 04:47:09;;;;;;;17.60;10.32;;;35.00;66.40;;;;;;5047750;28;20033;-71
2023/12/18 04:49:40;;;;;;;23.35;9.70;;;34.70;68.30;;;;;;5046979;28;20036;-71
2023/12/18 04:52:07;;;;;;;17.90;8.52;;;34.60;70.40;;;;;;5048830;28;20049;-71
2023/12/18 04:54:34;;;;;;;21.08;8.35;;;34.70;71.90;;;;;;5049566;28;20028;-73
2023/12/18 04:57:02;;;;;;;20.52;8.50;;;35.00;72.20;;;;;;5050481;28;20028;-71
2023/12/18 04:59:29;;;;;;;16.77;8.85;;;35.10;71.00;;;;;;5058406;28;20035;-72
2023/12/18 05:01:57;;;;;;;19.05;7.57;;;35.20;71.30;;;;;;5052199;28;20017;-70
2023/12/18 05:04:25;;;;;;;18.95;7.65;;;34.90;71.50;;;;;;5050542;28;20056;-73
2023/12/18 05:06:52;;;;;;;19.48;7.80;;;34.70;72.00;;;;;;5035194;28;20155;-71
2023/12/18 05:09:20;;;;;;;20.20;7.43;;;34.90;73.00;;;;;;5048018;28;20037;-71
2023/12/18 05:11:53;;;;;;;17.67;7.00;;;34.90;72.90;;;;;;5052512;28;20024;-72
2023/12/18 05:14:20;;;;;;;15.95;7.68;;;35.00;73.20;;;;;;5056418;28;20035;-72
2023/12/18 05:16:47;;;;;;;18.15;6.88;;;34.90;73.10;;;;;;5050604;28;20036;-73
2023/12/18 05:19:18;;;;;;;18.10;7.32;;;34.60;73.60;;;;;;5057240;28;20060;-71
2023/12/18 05:21:45;;;;;;;21.75;6.68;;;34.20;74.40;;;;;;5057746;28;20115;-71
2023/12/18 05:24:12;;;;;;;21.30;7.32;;;34.10;74.60;;;;;;5053649;28;20035;-71
2023/12/18 05:26:40;;;;;;;17.20;8.15;;;33.90;75.50;;;;;;5055801;28;20440;-71
2023/12/18 05:29:07;;;;;;;24.05;7.40;;;33.60;75.90;;;;;;5057796;28;20446;-71
2023/12/18 05:31:34;;;;;;;20.83;7.95;;;33.40;77.30;;;;;;5057304;28;20020;-72
2023/12/18 05:34:02;;;;;;;21.90;8.13;;;33.40;77.80;;;;;;5033182;28;20474;-72
2023/12/18 05:36:30;;;;;;;25.13;7.82;;;33.20;78.50;;;;;;5056056;28;20021;-72
2023/12/18 05:38:57;;;;;;;19.95;7.40;;;33.10;78.60;;;;;;5054327;28;20111;-72
2023/12/18 05:41:24;;;;;;;17.75;7.50;;;33.00;79.20;;;;;;5053338;28;20025;-72
2023/12/18 05:43:52;;;;;;;25.08;8.55;;;33.00;79.40;;;;;;5058002;28;20025;-72
2023/12/18 05:46:19;;;;;;;26.30;8.90;;;33.10;79.90;;;;;;5055067;28;20027;-72
2023/12/18 05:48:46;;;;;;;25.08;8.45;;;33.20;80.30;;;;;;5059785;28;20045;-71
2023/12/18 05:51:21;;;;;;;19.20;7.95;;;33.30;79.90;;;;;;5058063;28;20036;-73
2023/12/18 05:53:49;;;;;;;17.70;7.88;;;33.30;80.10;;;;;;5051826;28;20045;-72
2023/12/18 05:56:16;;;;;;;24.08;8.45;;;33.20;79.90;;;;;;5051551;28;20428;-72
2023/12/18 05:58:44;;;;;;;20.77;7.80;;;33.30;80.20;;;;;;5051678;28;20043;-72
2023/12/18 06:01:12;;;;;;;23.50;8.18;;;33.50;80.00;;;;;;5056224;28;20454;-71
2023/12/18 06:03:39;;;;;;;22.25;7.22;;;33.40;80.00;;;;;;5051059;28;20037;-72
2023/12/18 06:06:07;;;;;;;25.63;8.82;;;33.20;80.60;;;;;;5054030;28;20024;-70
2023/12/18 06:08:34;;;;;;;25.42;9.15;;;33.10;81.40;;;;;;5051564;28;20048;-72
2023/12/18 06:11:01;;;;;;;20.02;8.25;;;33.00;81.90;;;;;;5047312;28;20047;-71
2023/12/18 06:13:31;;;;;;;21.13;8.02;;;33.00;81.90;;;;;;5050667;28;20031;-71
2023/12/18 06:15:59;;;;;;;26.48;8.85;;;32.80;82.10;;;;;;5058386;28;20530;-71
2023/12/18 06:18:27;;;;;;;24.02;8.00;;;32.60;83.30;;;;;;5046080;28;20021;-75
2023/12/18 06:20:54;;;;;;;22.33;7.60;;;32.40;83.50;;;;;;5046876;28;20033;-73
2023/12/18 06:23:26;;;;;;;20.75;8.10;;;32.30;83.60;;;;;;5045395;28;20030;-73
2023/12/18 06:25:54;;;;;;;24.17;8.52;;;32.20;84.20;;;;;;5040213;28;20044;-73
2023/12/18 06:28:21;;;;;;;19.90;8.48;;;32.00;85.00;;;;;;5046177;28;20119;-73
2023/12/18 06:30:48;;;;;;;21.83;8.85;;;31.80;85.90;;;;;;5045469;28;20028;-73
2023/12/18 06:33:16;;;;;;;22.92;9.43;;;31.70;85.70;;;;;;5045517;28;20025;-73
2023/12/18 06:35:43;;;;;;;24.33;9.07;;;31.60;86.10;;;;;;5050448;28;20115;-73
2023/12/18 06:38:10;;;;;;;23.52;9.35;;;31.50;86.80;;;;;;5044137;28;20134;-73
2023/12/18 06:40:38;;;;;;;23.90;8.70;;;31.50;87.10;;;;;;5051465;28;20465;-73
2023/12/18 06:43:05;;;;;;;20.70;8.35;;;31.50;87.00;;;;;;5055143;28;20141;-72
2023/12/18 06:45:32;;;;;;;21.80;9.98;;;31.40;87.50;;;;;;5051424;28;20017;-72
2023/12/18 06:48:00;;;;;;;26.20;10.05;;;31.40;87.90;;;;;;5053929;28;20029;-73
2023/12/18 06:50:28;;;;;;;24.52;9.48;;;31.20;88.40;;;;;;5050320;28;20064;-73
2023/12/18 06:52:55;;;;;;;34.72;11.63;;;31.20;88.60;;;;;;5053840;28;20166;-73
2023/12/18 06:55:23;;;;;;;30.55;11.10;;;31.10;88.70;;;;;;5042515;28;20149;-72
2023/12/18 06:57:50;;;;;;;25.70;10.75;;;31.10;89.70;;;;;;5052061;28;20477;-72
2023/12/18 07:00:18;;;;;;;33.70;11.18;;;31.00;89.40;;;;;;5052251;28;20063;-72
2023/12/18 07:02:45;;;;;;;27.50;10.60;;;31.00;89.50;;;;;;5036678;28;20025;-73
2023/12/18 07:05:16;;;;;;;26.42;10.00;;;31.10;89.80;;;;;;5048916;28;20095;-72
2023/12/18 07:07:43;;;;;;;25.42;10.40;;;31.10;89.60;;;;;;5057835;28;20040;-72
2023/12/18 07:10:10;;;;;;;20.02;9.82;;;31.10;89.40;;;;;;5059123;28;20466;-73
2023/12/18 07:12:38;;;;;;;23.02;10.88;;;31.00;89.80;;;;;;5052303;28;20064;-72
2023/12/18 07:15:06;;;;;;;26.58;11.68;;;31.00;89.90;;;;;;5052105;28;20084;-72
2023/12/18 07:17:33;;;;;;;24.45;10.60;;;30.80;90.30;;;;;;5031834;28;20040;-72
2023/12/18 07:20:01;;;;;;;24.17;11.07;;;30.90;89.90;;;;;;5034588;28;20038;-72
2023/12/18 07:22:28;;;;;;;25.08;11.38;;;30.90;90.20;;;;;;5048790;28;20025;-73
2023/12/18 07:24:56;;;;;;;23.27;10.27;;;31.00;90.20;;;;;;5058338;28;20028;-72
2023/12/18 07:27:26;;;;;;;26.80;10.10;;;30.90;90.00;;;;;;5059087;28;20033;-73
2023/12/18 07:29:53;;;;;;;30.50;9.93;;;30.70;90.20;;;;;;5053724;28;20024;-72
2023/12/18 07:32:21;;;;;;;20.10;8.63;;;30.80;90.50;;;;;;5052120;28;20049;-73
2023/12/18 07:34:48;;;;;;;26.98;9.45;;;30.70;90.90;;;;;;5051601;28;20033;-72
2023/12/18 07:37:16;;;;;;;30.35;10.55;;;30.70;91.00;;;;;;5050810;28;20017;-72
2023/12/18 07:39:47;;;;;;;20.65;9.95;;;30.60;90.80;;;;;;5049638;28;20035;-72
2023/12/18 07:42:14;;;;;;;51.30;15.98;;;30.50;91.00;;;;;;5045553;28;20123;-71
2023/12/18 07:44:42;;;;;;;32.15;10.82;;;30.50;91.00;;;;;;5050910;28;20029;-73
2023/12/18 07:47:10;;;;;;;21.92;10.07;;;30.30;91.20;;;;;;5054625;28;20033;-73
2023/12/18 07:49:37;;;;;;;28.45;10.15;;;30.30;91.30;;;;;;5049777;28;20052;-72
2023/12/18 07:52:05;;;;;;;23.10;9.80;;;30.30;91.50;;;;;;5052090;28;20040;-71
2023/12/18 07:54:32;;;;;;;25.55;9.02;;;30.20;91.50;;;;;;5049740;28;20031;-72
2023/12/18 07:56:59;;;;;;;22.55;8.55;;;30.20;91.50;;;;;;5048494;28;20378;-71
2023/12/18 07:59:28;;;;;;;25.55;8.85;;;30.10;91.90;;;;;;5049886;28;20033;-72
2023/12/18 08:01:56;;;;;;;23.90;8.95;;;30.00;92.10;;;;;;5049242;28;20553;-72
2023/12/18 08:04:23;;;;;;;27.33;8.88;;;29.90;92.20;;;;;;5047722;28;20032;-72
2023/12/18 08:06:52;;;;;;;20.27;8.02;;;29.90;92.40;;;;;;5052137;28;20035;-72
2023/12/18 08:09:19;;;;;;;27.50;9.02;;;29.90;92.40;;;;;;5042544;28;20636;-72
2023/12/18 08:11:47;;;;;;;24.65;7.82;;;29.80;92.70;;;;;;5045705;28;20029;-71
2023/12/18 08:14:14;;;;;;;26.45;8.30;;;29.80;92.90;;;;;;5045783;28;20017;-72
2023/12/18 08:16:41;;;;;;;22.63;7.13;;;29.70;93.20;;;;;;5036559;28;20041;-72
2023/12/18 08:19:09;;;;;;;25.42;8.13;;;29.50;93.60;;;;;;5052650;28;20381;-73
2023/12/18 08:21:36;;;;;;;27.65;8.98;;;29.40;93.90;;;;;;5058925;28;20017;-72
2023/12/18 08:24:04;;;;;;;28.42;9.57;;;29.40;93.90;;;;;;5047064;28;20071;-72
2023/12/18 08:26:31;;;;;;;27.27;9.13;;;29.30;94.10;;;;;;5051516;28;20443;-73
2023/12/18 08:28:59;;;;;;;28.10;8.18;;;29.20;94.30;;;;;;5053997;28;20033;-72
2023/12/18 08:31:26;;;;;;;27.50;9.48;;;29.10;94.40;;;;;;5048503;28;20022;-73
2023/12/18 08:33:53;;;;;;;27.38;9.80;;;29.00;94.50;;;;;;5055659;28;20457;-73
2023/12/18 08:36:21;;;;;;;30.77;8.27;;;28.90;94.90;;;;;;5051847;28;20025;-73
2023/12/18 08:38:48;;;;;;;28.52;9.45;;;28.90;94.80;;;;;;5053673;28;20047;-73
2023/12/18 08:41:15;;;;;;;29.38;8.70;;;28.80;94.90;;;;;;5065625;28;20394;-73
2023/12/18 08:43:43;;;;;;;24.85;8.77;;;28.80;95.00;;;;;;5054932;28;20425;-73
2023/12/18 08:46:10;;;;;;;26.80;8.27;;;28.90;95.10;;;;;;5057689;28;20025;-72
2023/12/18 08:48:37;;;;;;;33.83;9.10;;;28.80;95.20;;;;;;5038695;28;20048;-73
2023/12/18 08:51:05;;;;;;;27.50;7.57;;;28.80;95.20;;;;;;5051008;28;20045;-73
2023/12/18 08:53:33;;;;;;;24.15;8.45;;;28.80;95.20;;;;;;5058504;28;20032;-73
2023/12/18 08:56:01;;;;;;;30.65;7.18;;;28.80;95.20;;;;;;5058449;28;20448;-73
2023/12/18 08:58:28;;;;;;;31.25;7.00;;;28.60;95.40;;;;;;5054639;28;20074;-73
2023/12/18 09:00:57;;;;;;;31.02;7.35;;;28.70;95.40;;;;;;5058644;28;20042;-73
2023/12/18 09:03:24;;;;;;;27.65;6.70;;;28.60;95.60;;;;;;5044539;28;20029;-74
2023/12/18 09:05:54;;;;;;;27.63;6.57;;;28.50;95.70;;;;;;5053096;28;20032;-73
2023/12/18 09:08:22;;;;;;;24.52;6.55;;;28.50;95.80;;;;;;5051153;28;20527;-73
2023/12/18 09:10:49;;;;;;;34.10;7.43;;;28.50;95.90;;;;;;5035585;28;20414;-73
2023/12/18 09:13:16;;;;;;;27.30;5.93;;;28.50;95.80;;;;;;5056004;28;20021;-74
2023/12/18 09:15:44;;;;;;;22.33;5.65;;;28.50;95.80;;;;;;5055954;28;20399;-73
2023/12/18 09:18:11;;;;;;;30.33;6.18;;;28.50;95.80;;;;;;5057435;28;20025;-72
2023/12/18 09:20:40;;;;;;;26.05;7.43;;;28.40;95.90;;;;;;5052868;28;20352;-72
2023/12/18 09:23:08;;;;;;;26.85;6.20;;;28.40;96.00;;;;;;5056976;28;20017;-72
2023/12/18 09:25:36;;;;;;;40.17;6.93;;;28.20;96.20;;;;;;5052548;28;20031;-72
2023/12/18 09:28:03;;;;;;;31.00;6.50;;;28.00;96.20;;;;;;5055019;28;20414;-72
2023/12/18 09:30:30;;;;;;;37.78;7.10;;;27.80;96.60;;;;;;5054228;28;20033;-72
2023/12/18 09:32:58;;;;;;;28.58;5.50;;;27.60;96.90;;;;;;5049692;28;20459;-72
2023/12/18 09:35:25;;;;;;;27.05;5.72;;;27.60;97.00;;;;;;5055905;28;20031;-73
2023/12/18 09:37:53;;;;;;;28.30;6.10;;;27.30;97.40;;;;;;5060900;28;20492;-72
2023/12/18 09:40:20;;;;;;;27.33;5.20;;;27.40;97.50;;;;;;5051029;28;20099;-72
2023/12/18 09:42:54;;;;;;;27.10;6.13;;;27.30;97.80;;;;;;5056531;28;20025;-71
2023/12/18 09:45:23;;;;;;;32.10;6.78;;;27.30;97.80;;;;;;5041494;28;20043;-72
2023/12/18 09:47:51;;;;;;;26.08;5.13;;;27.30;97.80;;;;;;5052726;28;20840;-72
2023/12/18 09:50:19;;;;;;;34.15;5.45;;;27.30;97.80;;;;;;5056790;28;20052;-72
2023/12/18 09:53:09;;;;;;;29.02;5.85;;;27.40;97.70;;;;;;5053688;28;20064;-72
2023/12/18 09:55:37;;;;;;;22.35;5.55;;;27.40;97.80;;;;;;5050260;28;20049;-72
2023/12/18 09:58:04;;;;;;;32.78;5.47;;;27.60;97.70;;;;;;5053915;28;20036;-71
2023/12/18 10:00:32;;;;;;;27.17;5.68;;;27.60;97.60;;;;;;5049314;28;20458;-71
2023/12/18 10:03:00;;;;;;;29.85;5.40;;;27.50;97.70;;;;;;5057110;28;20390;-72
2023/12/18 10:05:28;;;;;;;31.90;5.95;;;27.40;98.10;;;;;;5056480;28;20127;-72
2023/12/18 10:07:59;;;;;;;38.72;6.93;;;27.40;98.10;;;;;;5029444;28;20052;-72
2023/12/18 10:10:27;;;;;;;30.75;6.78;;;27.30;98.40;;;;;;5050168;28;20028;-72
2023/12/18 10:12:55;;;;;;;26.63;6.30;;;27.40;98.30;;;;;;5052165;28;20029;-72
2023/12/18 10:15:24;;;;;;;26.58;6.43;;;27.50;98.00;;;;;;5049752;28;20025;-72
2023/12/18 10:17:51;;;;;;;25.17;6.07;;;27.60;98.10;;;;;;5053794;28;20052;-72
2023/12/18 10:20:18;;;;;;;33.88;6.15;;;27.60;97.90;;;;;;5051641;28;20120;-72
2023/12/18 10:22:46;;;;;;;28.83;6.10;;;27.60;97.90;;;;;;5054574;28;20049;-72
2023/12/18 10:25:14;;;;;;;30.60;6.32;;;27.30;98.20;;;;;;5054064;28;20100;-72
2023/12/18 10:27:42;;;;;;;20.50;5.85;;;27.10;99.00;;;;;;5051938;28;20064;-72
2023/12/18 10:30:10;;;;;;;30.20;5.93;;;27.10;98.90;;;;;;5054681;28;20033;-71
2023/12/18 10:32:39;;;;;;;27.92;6.45;;;26.90;99.10;;;;;;5053749;28;20031;-71
2023/12/18 10:35:08;;;;;;;27.67;5.97;;;26.90;99.30;;;;;;5052528;28;20489;-72
2023/12/18 10:37:37;;;;;;;24.60;6.00;;;26.80;99.40;;;;;;5057234;28;20029;-71
2023/12/18 10:40:11;;;;;;;28.75;6.72;;;26.60;99.60;;;;;;5057798;28;20028;-72
2023/12/18 10:42:41;;;;;;;26.15;6.07;;;26.50;99.80;;;;;;5035381;28;20040;-72
2023/12/18 10:45:09;;;;;;;22.08;6.13;;;26.50;99.90;;;;;;5049755;28;20052;-72
2023/12/18 10:47:37;;;;;;;28.48;6.60;;;26.60;99.80;;;;;;5057079;28;20396;-72
2023/12/18 10:50:06;;;;;;;23.15;6.72;;;26.50;99.80;;;;;;5055099;28;20028;-73
2023/12/18 10:52:35;;;;;;;18.95;6.00;;;26.50;99.90;;;;;;5055121;28;20159;-72
2023/12/18 10:55:04;;;;;;;22.88;5.88;;;26.50;99.90;;;;;;5055760;28;20028;-71
2023/12/18 10:57:35;;;;;;;25.38;6.65;;;26.40;99.90;;;;;;5050964;28;20049;-71
2023/12/18 11:00:03;;;;;;;20.95;6.40;;;26.40;99.90;;;;;;5058164;28;20364;-72
2023/12/18 11:02:36;;;;;;;24.48;6.97;;;26.30;99.90;;;;;;5032314;28;20056;-72
2023/12/18 11:05:05;;;;;;;25.25;6.55;;;26.20;99.90;;;;;;5055254;28;20028;-73
2023/12/18 11:07:32;;;;;;;22.58;6.07;;;26.20;99.90;;;;;;5058375;28;20039;-72
2023/12/18 11:10:02;;;;;;;22.85;6.25;;;26.10;99.90;;;;;;5036733;28;20451;-71
2023/12/18 11:12:30;;;;;;;25.23;5.70;;;26.10;99.90;;;;;;5044671;28;20465;-72
2023/12/18 11:15:22;;;;;;;28.35;7.28;;;26.10;99.90;;;;;;5050514;28;20036;-72
2023/12/18 11:18:24;;;;;;;25.05;6.82;;;26.10;99.90;;;;;;5046398;28;20361;-72
2023/12/18 11:20:52;;;;;;;21.85;5.80;;;26.10;99.90;;;;;;5019463;28;20064;-72
2023/12/18 11:23:19;;;;;;;25.30;7.70;;;26.00;99.90;;;;;;5043351;28;20013;-72
2023/12/18 11:25:50;;;;;;;22.90;6.13;;;26.20;99.90;;;;;;5046697;28;20040;-71
2023/12/18 11:28:20;;;;;;;20.40;6.65;;;26.10;99.90;;;;;;5044089;28;20029;-72
2023/12/18 11:30:47;;;;;;;25.10;6.72;;;26.00;99.90;;;;;;5046056;28;20037;-72
2023/12/18 11:33:17;;;;;;;27.52;6.03;;;26.00;99.90;;;;;;5047823;28;20721;-73
2023/12/18 11:35:49;;;;;;;28.23;6.90;;;26.00;99.90;;;;;;5045929;28;20545;-75
2023/12/18 11:38:19;;;;;;;25.50;6.50;;;26.00;99.90;;;;;;5057632;28;20037;-75
2023/12/18 11:40:49;;;;;;;22.73;6.97;;;25.90;99.90;;;;;;5043392;28;20174;-74
2023/12/18 11:43:41;;;;;;;25.45;6.85;;;25.90;99.90;;;;;;5039100;28;20032;-76
2023/12/18 11:46:14;;;;;;;27.52;6.85;;;25.90;99.90;;;;;;5030283;28;20047;-78
2023/12/18 11:48:42;;;;;;;24.48;6.80;;;25.80;99.90;;;;;;5050893;28;20120;-76
2023/12/18 11:51:12;;;;;;;27.63;6.78;;;25.80;99.90;;;;;;5051718;28;20051;-76
2023/12/18 11:53:40;;;;;;;25.75;6.43;;;25.70;99.90;;;;;;5053111;28;20025;-76
2023/12/18 11:56:09;;;;;;;26.67;7.03;;;25.60;99.90;;;;;;5049147;28;20037;-75
2023/12/18 11:58:42;;;;;;;27.83;7.03;;;25.70;99.90;;;;;;5052292;28;20029;-75
2023/12/18 12:01:10;;;;;;;18.90;7.30;;;25.60;99.90;;;;;;5054524;28;20090;-75
2023/12/18 12:03:40;;;;;;;27.02;7.75;;;25.60;99.90;;;;;;5052150;28;20116;-76
2023/12/18 12:06:08;;;;;;;26.30;9.98;;;25.60;99.90;;;;;;5058114;28;20476;-75
2023/12/18 12:08:43;;;;;;;35.60;11.40;;;25.50;99.90;;;;;;5052998;28;20064;-74
2023/12/18 12:11:11;;;;;;;35.72;12.35;;;25.40;99.90;;;;;;5053977;28;20087;-76
2023/12/18 12:13:39;;;;;;;34.33;11.73;;;25.40;99.90;;;;;;5037863;28;20473;-76
2023/12/18 12:16:06;;;;;;;42.10;12.55;;;25.40;99.90;;;;;;5055609;28;20032;-75
2023/12/18 12:18:46;;;;;;;35.78;11.45;;;25.40;99.90;;;;;;5054604;28;20028;-74
2023/12/18 12:21:14;;;;;;;28.77;10.27;;;25.40;99.90;;;;;;5058777;28;20032;-74
2023/12/18 12:23:42;;;;;;;35.28;10.55;;;25.30;99.90;;;;;;5041265;28;20529;-75
2023/12/18 12:26:09;;;;;;;28.38;9.73;;;25.30;99.90;;;;;;5055264;28;20372;-74
2023/12/18 12:28:37;;;;;;;30.13;10.50;;;25.30;99.90;;;;;;5049767;28;20048;-76
2023/12/18 12:31:05;;;;;;;30.27;10.65;;;25.40;99.90;;;;;;5038992;28;20079;-76
2023/12/18 12:33:45;;;;;;;34.25;10.85;;;25.40;99.90;;;;;;5050421;28;20115;-74
2023/12/18 12:36:22;;;;;;;32.67;10.90;;;25.40;99.90;;;;;;5051730;28;20035;-75
2023/12/18 12:38:49;;;;;;;33.83;10.55;;;25.30;99.90;;;;;;5052535;28;20074;-75